Time;durP1;ratioP1;P1;durP2;ratioP2;P2;SDS_P1;SDS_P2;PMS_P1;PMS_P2;Temp;Humidity;BMP_temperature;BMP_pressure;BME280_temperature;BME280_humidity;BME280_pressure;Samples;Min_cycle;Max_cycle;Signal;HPM_P1;HPM_P2
2021/06/02 00:04:25;;;;;;;3.10;2.90;;;16.90;56.40;;;;;;10496538;28;20649;-79
2021/06/02 00:09:28;;;;;;;3.00;2.73;;;16.80;56.70;;;;;;10489844;28;20254;-80
2021/06/02 00:14:30;;;;;;;2.90;2.60;;;16.80;56.20;;;;;;10496196;28;20231;-77
2021/06/02 00:19:34;;;;;;;3.70;3.10;;;16.70;56.30;;;;;;10487398;28;20221;-79
2021/06/02 00:24:38;;;;;;;3.60;3.30;;;16.70;57.10;;;;;;10468021;28;20208;-79
2021/06/02 00:29:42;;;;;;;3.30;3.00;;;16.60;57.30;;;;;;10494553;28;20220;-79
2021/06/02 00:34:46;;;;;;;3.40;3.07;;;16.50;56.90;;;;;;10498825;28;20208;-80
2021/06/02 00:39:48;;;;;;;3.97;2.50;;;16.50;57.30;;;;;;10491326;28;20234;-79
2021/06/02 00:44:51;;;;;;;2.90;2.70;;;16.40;56.40;;;;;;10499215;28;20201;-81
2021/06/02 00:49:54;;;;;;;2.87;2.67;;;16.40;56.10;;;;;;10501787;28;20349;-80
2021/06/02 00:54:56;;;;;;;2.87;2.67;;;16.30;55.90;;;;;;10501194;28;20201;-81
2021/06/02 01:00:05;;;;;;;3.10;2.90;;;16.20;56.90;;;;;;10498918;28;20258;-81
2021/06/02 01:05:09;;;;;;;3.17;2.97;;;16.00;57.10;;;;;;10499437;28;20715;-81
2021/06/02 01:10:13;;;;;;;3.17;2.97;;;16.00;57.60;;;;;;10495117;28;20710;-80
2021/06/02 01:15:15;;;;;;;3.40;3.10;;;15.90;58.00;;;;;;10496245;28;20239;-79
2021/06/02 01:20:19;;;;;;;3.20;3.00;;;15.90;57.10;;;;;;10492900;28;20227;-80
2021/06/02 01:25:25;;;;;;;2.67;2.50;;;15.90;57.20;;;;;;10488059;28;20200;-79
2021/06/02 01:30:27;;;;;;;3.33;3.03;;;15.80;57.00;;;;;;10476226;28;20220;-79
2021/06/02 01:35:49;;;;;;;3.20;2.90;;;15.70;57.40;;;;;;10483517;28;20208;-80
2021/06/02 01:41:24;;;;;;;3.23;3.03;;;15.50;58.40;;;;;;10478279;28;20228;-80
2021/06/02 01:46:45;;;;;;;3.63;3.33;;;15.40;58.00;;;;;;10491985;28;20710;-80
2021/06/02 01:52:18;;;;;;;3.40;2.80;;;15.30;58.00;;;;;;10497548;28;20290;-80
2021/06/02 01:57:52;;;;;;;3.27;3.07;;;15.20;58.20;;;;;;10476985;28;20315;-79
2021/06/02 02:03:42;;;;;;;2.97;2.77;;;15.10;59.20;;;;;;10487353;28;20222;-80
2021/06/02 02:08:47;;;;;;;3.23;2.93;;;15.10;59.20;;;;;;10376034;28;20193;-80
2021/06/02 02:14:03;;;;;;;3.03;2.87;;;15.00;60.10;;;;;;10472840;28;20232;-81
2021/06/02 02:19:22;;;;;;;2.80;2.60;;;15.00;59.30;;;;;;10499641;28;20215;-81
2021/06/02 02:24:32;;;;;;;3.43;3.23;;;14.90;60.20;;;;;;10500560;28;20696;-80
2021/06/02 02:29:44;;;;;;;2.93;2.73;;;14.90;60.00;;;;;;10483035;28;20672;-80
2021/06/02 02:35:12;;;;;;;6.27;3.17;;;14.80;60.00;;;;;;10498569;28;20269;-80
2021/06/02 02:40:25;;;;;;;3.40;3.20;;;14.80;60.50;;;;;;10462426;28;20240;-80
2021/06/02 02:45:32;;;;;;;4.07;3.77;;;14.80;59.80;;;;;;10485498;28;20615;-79
2021/06/02 02:50:39;;;;;;;3.83;3.43;;;14.80;61.50;;;;;;10490854;28;20243;-79
2021/06/02 02:55:42;;;;;;;3.57;3.27;;;14.80;60.90;;;;;;10491167;28;20287;-80
2021/06/02 03:00:46;;;;;;;3.63;3.33;;;14.80;62.30;;;;;;10455780;28;20716;-79
2021/06/02 03:05:56;;;;;;;5.70;3.50;;;14.80;60.40;;;;;;10469798;28;20244;-78
2021/06/02 03:11:04;;;;;;;3.43;3.23;;;14.70;61.60;;;;;;10497421;28;20306;-79
2021/06/02 03:16:12;;;;;;;3.47;3.27;;;14.70;61.40;;;;;;10499956;28;20698;-79
2021/06/02 03:21:45;;;;;;;6.50;3.63;;;14.70;61.50;;;;;;10499772;28;20240;-80
2021/06/02 03:26:55;;;;;;;3.97;3.67;;;14.70;61.70;;;;;;10498150;28;20200;-80
2021/06/02 03:32:04;;;;;;;3.93;3.63;;;14.60;61.30;;;;;;10491439;28;20606;-80
2021/06/02 03:37:14;;;;;;;4.17;3.87;;;14.60;61.70;;;;;;10454073;28;20225;-79
2021/06/02 03:42:38;;;;;;;4.43;4.13;;;14.50;62.20;;;;;;10480385;28;20220;-80
2021/06/02 03:47:52;;;;;;;4.27;3.93;;;14.40;61.10;;;;;;10500985;28;20207;-81
2021/06/02 03:53:06;;;;;;;4.27;3.87;;;14.40;62.60;;;;;;10494464;28;20248;-79
2021/06/02 03:58:23;;;;;;;4.00;3.70;;;14.30;62.50;;;;;;10501145;28;20220;-80
2021/06/02 04:03:28;;;;;;;3.97;3.67;;;14.30;63.40;;;;;;10503096;28;20684;-81
2021/06/02 04:08:41;;;;;;;3.90;3.70;;;14.30;65.20;;;;;;10501952;28;20678;-79
2021/06/02 04:14:03;;;;;;;3.67;3.47;;;14.30;63.80;;;;;;10489993;28;20228;-79
2021/06/02 04:19:06;;;;;;;4.60;4.30;;;14.30;63.20;;;;;;10498906;28;20221;-79
2021/06/02 04:24:11;;;;;;;3.60;3.33;;;14.30;64.50;;;;;;10496016;28;20597;-78
2021/06/02 04:29:15;;;;;;;3.57;3.27;;;14.30;63.20;;;;;;10504023;28;20226;-79
2021/06/02 04:34:18;;;;;;;3.93;3.63;;;14.30;63.60;;;;;;10496417;28;20236;-80
2021/06/02 04:39:21;;;;;;;4.27;3.90;;;14.30;65.80;;;;;;10491486;28;20299;-79
2021/06/02 04:44:26;;;;;;;4.60;4.20;;;14.30;64.60;;;;;;10498021;28;20250;-80
2021/06/02 04:49:36;;;;;;;4.50;4.03;;;14.30;66.20;;;;;;10506273;28;20275;-79
2021/06/02 04:55:08;;;;;;;4.47;4.17;;;14.30;66.10;;;;;;10501206;28;20261;-81
2021/06/02 05:00:45;;;;;;;5.37;4.37;;;14.40;65.70;;;;;;10501206;28;20303;-80
2021/06/02 05:06:37;;;;;;;4.67;4.27;;;14.40;66.20;;;;;;10491682;28;20226;-79
2021/06/02 05:12:28;;;;;;;4.17;3.87;;;14.40;66.80;;;;;;10490343;28;20231;-79
2021/06/02 05:18:08;;;;;;;4.63;4.20;;;14.50;66.10;;;;;;10498449;28;20634;-79
2021/06/02 05:23:51;;;;;;;4.50;4.13;;;14.60;66.40;;;;;;10485145;28;20232;-79
2021/06/02 05:29:17;;;;;;;5.03;4.63;;;14.60;65.90;;;;;;10483849;28;20270;-81
2021/06/02 05:34:54;;;;;;;5.03;4.60;;;14.70;66.00;;;;;;10490893;28;20229;-79
2021/06/02 05:40:21;;;;;;;6.37;4.30;;;14.80;66.30;;;;;;10498250;28;20278;-79
2021/06/02 05:45:58;;;;;;;6.07;5.57;;;14.90;67.40;;;;;;10489646;28;20196;-79
2021/06/02 05:51:29;;;;;;;4.67;4.23;;;15.00;67.10;;;;;;10478795;28;20266;-78
2021/06/02 05:57:00;;;;;;;6.60;6.00;;;15.20;66.80;;;;;;10482449;28;20227;-79
2021/06/02 06:02:41;;;;;;;5.30;4.90;;;15.30;67.50;;;;;;10493526;28;20303;-79
2021/06/02 06:08:30;;;;;;;6.03;3.97;;;15.40;66.20;;;;;;10486093;28;20223;-80
2021/06/02 06:14:06;;;;;;;3.77;3.43;;;15.50;65.40;;;;;;10384322;28;20238;-79
2021/06/02 06:19:38;;;;;;;3.30;2.90;;;15.60;65.90;;;;;;10491048;28;20228;-79
2021/06/02 06:24:48;;;;;;;4.93;4.53;;;15.80;65.80;;;;;;10500497;28;20279;-80
2021/06/02 06:30:00;;;;;;;4.00;3.70;;;15.90;64.60;;;;;;10497772;28;20567;-80
2021/06/02 06:35:05;;;;;;;6.73;3.97;;;16.10;64.70;;;;;;10495723;28;20201;-79
2021/06/02 06:40:08;;;;;;;6.80;5.83;;;16.40;64.80;;;;;;10498662;28;20252;-80
2021/06/02 06:45:16;;;;;;;7.63;5.50;;;16.80;64.10;;;;;;10505423;28;20322;-79
2021/06/02 06:50:20;;;;;;;7.30;5.70;;;17.30;63.80;;;;;;10507321;28;20221;-80
2021/06/02 06:55:25;;;;;;;6.00;5.23;;;17.70;61.80;;;;;;10501533;28;20200;-79
2021/06/02 07:00:39;;;;;;;6.43;5.00;;;18.10;62.00;;;;;;10507480;28;20277;-80
2021/06/02 07:05:41;;;;;;;5.07;4.67;;;18.50;59.90;;;;;;10507570;28;20224;-79
2021/06/02 07:10:43;;;;;;;6.93;4.70;;;18.80;59.30;;;;;;10507160;28;20688;-79
2021/06/02 07:15:47;;;;;;;5.17;4.13;;;19.20;58.90;;;;;;10507546;28;20473;-80
2021/06/02 07:20:51;;;;;;;8.63;5.40;;;19.70;58.50;;;;;;10496703;28;20264;-80
2021/06/02 07:25:53;;;;;;;5.23;4.73;;;20.20;56.40;;;;;;10496085;28;20288;-81
2021/06/02 07:30:59;;;;;;;4.20;3.80;;;20.80;56.60;;;;;;10496831;28;20646;-81
2021/06/02 07:36:08;;;;;;;6.70;4.47;;;21.30;55.30;;;;;;10496193;28;20201;-81
2021/06/02 07:41:12;;;;;;;4.37;3.70;;;21.90;55.70;;;;;;10495246;28;20221;-81
2021/06/02 07:46:15;;;;;;;4.20;3.80;;;22.60;54.60;;;;;;10494928;28;20230;-81
2021/06/02 07:51:17;;;;;;;3.70;3.40;;;23.20;53.50;;;;;;10503328;28;20220;-78
2021/06/02 07:56:19;;;;;;;5.93;3.73;;;23.70;52.40;;;;;;10500765;28;20786;-79
2021/06/02 08:01:22;;;;;;;4.17;3.77;;;24.20;51.30;;;;;;10496383;28;20224;-81
2021/06/02 08:06:23;;;;;;;14.40;4.53;;;24.80;50.40;;;;;;10494448;28;20256;-79
2021/06/02 08:11:25;;;;;;;4.50;3.80;;;25.30;48.90;;;;;;10490450;28;20252;-79
2021/06/02 08:16:28;;;;;;;4.40;3.93;;;25.80;49.10;;;;;;10499722;28;20241;-80
2021/06/02 08:21:29;;;;;;;5.60;3.43;;;26.40;46.70;;;;;;10500611;28;20224;-80
2021/06/02 08:26:35;;;;;;;3.50;3.20;;;26.80;45.90;;;;;;10502637;28;20203;-80
2021/06/02 08:31:38;;;;;;;3.70;3.40;;;27.30;45.50;;;;;;10493398;28;20226;-80
2021/06/02 08:36:39;;;;;;;3.23;3.03;;;27.70;44.70;;;;;;10500658;28;20213;-80
2021/06/02 08:41:42;;;;;;;5.83;3.70;;;28.00;43.00;;;;;;10495060;28;20223;-80
2021/06/02 08:46:46;;;;;;;3.30;3.00;;;28.30;41.40;;;;;;10494174;28;20193;-80
2021/06/02 08:51:49;;;;;;;3.77;3.47;;;28.50;41.40;;;;;;10477285;28;20568;-79
2021/06/02 08:56:51;;;;;;;4.73;4.33;;;28.60;41.50;;;;;;10480888;28;20311;-80
2021/06/02 09:01:54;;;;;;;3.93;3.60;;;28.90;41.50;;;;;;10492900;28;20224;-79
2021/06/02 09:06:57;;;;;;;3.03;2.80;;;29.20;40.00;;;;;;10499973;28;20204;-80
2021/06/02 09:12:04;;;;;;;4.00;3.70;;;29.50;39.20;;;;;;10500148;28;20232;-80
2021/06/02 09:17:08;;;;;;;3.23;3.00;;;29.80;39.90;;;;;;10500871;28;20216;-80
2021/06/02 09:22:11;;;;;;;3.67;3.27;;;30.00;39.40;;;;;;10499795;28;20223;-80
2021/06/02 09:27:13;;;;;;;2.60;2.50;;;30.20;38.80;;;;;;10501025;28;20196;-80
2021/06/02 09:32:18;;;;;;;2.93;2.60;;;30.50;35.60;;;;;;10501946;28;20216;-80
2021/06/02 09:37:20;;;;;;;4.00;2.83;;;30.70;34.80;;;;;;10501549;28;20299;-81
2021/06/02 09:42:26;;;;;;;5.47;3.43;;;31.40;34.80;;;;;;10501451;28;20728;-81
2021/06/02 09:47:42;;;;;;;3.67;3.47;;;32.40;32.20;;;;;;10466694;28;20193;-81
2021/06/02 09:52:47;;;;;;;3.27;3.07;;;33.40;33.10;;;;;;10467811;28;20307;-81
2021/06/02 09:57:55;;;;;;;3.47;3.27;;;34.70;31.00;;;;;;10467011;28;20299;-81
2021/06/02 10:03:00;;;;;;;3.83;2.10;;;36.20;28.80;;;;;;10503472;28;20301;-80
2021/06/02 10:08:01;;;;;;;5.50;3.10;;;37.30;27.90;;;;;;10498517;28;20589;-80
2021/06/02 10:13:05;;;;;;;3.60;3.10;;;37.90;27.10;;;;;;10485214;22;20234;-79
2021/06/02 10:18:26;;;;;;;2.57;2.47;;;38.90;27.10;;;;;;10458888;28;20303;-79
2021/06/02 10:23:28;;;;;;;3.03;2.93;;;38.90;26.40;;;;;;10463278;28;20284;-79
2021/06/02 10:28:32;;;;;;;3.77;3.57;;;36.40;26.80;;;;;;10442234;28;20648;-79
2021/06/02 10:33:39;;;;;;;3.40;3.20;;;33.60;27.70;;;;;;10459719;28;20221;-78
2021/06/02 10:38:48;;;;;;;3.40;3.20;;;31.40;29.40;;;;;;10465949;28;20244;-80
2021/06/02 10:43:53;;;;;;;3.80;3.50;;;29.90;31.30;;;;;;10440434;28;20296;-80
2021/06/02 10:49:00;;;;;;;3.33;3.13;;;28.70;33.40;;;;;;10434995;28;20205;-80
2021/06/02 10:54:07;;;;;;;3.93;3.60;;;27.90;34.40;;;;;;10413380;28;20704;-80
2021/06/02 11:05:15;;;;;;;3.80;3.50;;;26.70;34.30;;;;;;10483025;22;20777;-78
2021/06/02 11:10:17;;;;;;;3.50;3.20;;;26.20;35.90;;;;;;10488270;28;20762;-78
2021/06/02 11:15:23;;;;;;;3.43;3.13;;;25.80;36.60;;;;;;10478263;28;20193;-79
2021/06/02 11:20:41;;;;;;;3.67;3.33;;;25.60;36.40;;;;;;10481948;28;20248;-78
2021/06/02 11:25:44;;;;;;;3.40;3.10;;;25.30;36.60;;;;;;10493536;28;20231;-79
2021/06/02 11:30:45;;;;;;;3.53;3.30;;;25.10;38.30;;;;;;10497319;28;20275;-78
2021/06/02 11:35:57;;;;;;;4.20;3.90;;;24.90;37.50;;;;;;10480395;28;20288;-78
2021/06/02 11:40:59;;;;;;;4.10;3.70;;;24.80;36.60;;;;;;10481175;28;20248;-77
2021/06/02 11:46:01;;;;;;;3.30;3.00;;;24.70;38.10;;;;;;10483520;28;20251;-78
2021/06/02 11:51:11;;;;;;;3.37;3.07;;;24.60;38.40;;;;;;10486472;28;20595;-78
2021/06/02 11:56:13;;;;;;;3.00;2.80;;;24.60;37.20;;;;;;10529900;28;20582;-79
2021/06/02 12:01:24;;;;;;;3.47;3.17;;;24.60;37.30;;;;;;10497929;28;20276;-78
2021/06/02 12:06:36;;;;;;;3.20;3.00;;;24.50;38.40;;;;;;10497984;28;20211;-79
2021/06/02 12:11:39;;;;;;;3.10;2.90;;;24.40;38.30;;;;;;10498060;28;20268;-78
2021/06/02 12:16:40;;;;;;;3.23;2.93;;;24.40;39.20;;;;;;10496601;28;20405;-78
2021/06/02 12:21:45;;;;;;;3.30;3.10;;;24.40;39.20;;;;;;10497498;28;20718;-78
2021/06/02 12:26:47;;;;;;;3.10;2.90;;;24.40;37.10;;;;;;10478878;28;20299;-78
2021/06/02 12:31:52;;;;;;;2.83;2.73;;;24.50;37.20;;;;;;10497251;28;20358;-79
2021/06/02 12:36:56;;;;;;;3.63;3.33;;;24.40;38.90;;;;;;10479135;28;20200;-78
2021/06/02 12:41:59;;;;;;;5.10;3.10;;;24.40;38.80;;;;;;10476297;28;20291;-78
2021/06/02 12:47:03;;;;;;;3.07;2.70;;;24.50;40.20;;;;;;10488192;28;20255;-77
2021/06/02 12:52:06;;;;;;;2.60;2.50;;;24.50;39.00;;;;;;10493774;28;20712;-79
2021/06/02 12:57:09;;;;;;;3.00;2.70;;;24.50;39.90;;;;;;10491365;28;20208;-79
2021/06/02 13:02:12;;;;;;;2.50;2.40;;;24.40;40.40;;;;;;10499942;28;20231;-79
2021/06/02 13:07:34;;;;;;;3.30;2.90;;;24.40;39.50;;;;;;10497375;28;20648;-81
2021/06/02 13:12:35;;;;;;;3.00;2.70;;;24.40;39.10;;;;;;10499184;28;20711;-82
2021/06/02 13:17:41;;;;;;;3.00;2.73;;;24.40;39.00;;;;;;10483393;28;20216;-82
2021/06/02 13:22:43;;;;;;;2.50;2.40;;;24.40;39.30;;;;;;10481583;28;20224;-81
2021/06/02 13:27:45;;;;;;;2.80;2.60;;;24.40;39.40;;;;;;10497810;28;20696;-81
2021/06/02 13:32:57;;;;;;;4.63;2.70;;;24.40;39.80;;;;;;10481229;28;20216;-81
2021/06/02 13:38:00;;;;;;;2.90;2.70;;;24.40;39.10;;;;;;10497520;28;20216;-81
2021/06/02 13:43:14;;;;;;;3.53;2.63;;;24.50;39.60;;;;;;10476842;28;20216;-81
2021/06/02 13:48:28;;;;;;;2.90;2.53;;;24.50;39.70;;;;;;10493849;28;20196;-80
2021/06/02 13:53:31;;;;;;;2.63;2.43;;;24.50;40.00;;;;;;10505722;28;20262;-81
2021/06/02 13:58:32;;;;;;;2.63;2.43;;;24.50;41.20;;;;;;10483130;28;20862;-82
2021/06/02 14:03:34;;;;;;;2.60;2.20;;;24.50;38.50;;;;;;10501469;28;20231;-81
2021/06/02 14:08:37;;;;;;;4.00;3.10;;;24.70;38.50;;;;;;10501976;28;20192;-81
2021/06/02 14:13:40;;;;;;;2.83;2.63;;;24.60;38.00;;;;;;10477450;28;20243;-81
2021/06/02 14:18:42;;;;;;;2.37;2.17;;;24.70;38.00;;;;;;10502312;28;20220;-81
2021/06/02 14:23:46;;;;;;;2.90;2.70;;;24.70;39.40;;;;;;10507311;28;20251;-81
2021/06/02 14:28:49;;;;;;;3.00;2.70;;;24.70;37.40;;;;;;10482873;28;20196;-81
2021/06/02 14:33:50;;;;;;;2.97;2.50;;;24.70;38.10;;;;;;10500701;28;20698;-81
2021/06/02 14:38:53;;;;;;;2.73;2.53;;;24.80;38.70;;;;;;10482237;28;20235;-80
2021/06/02 14:43:55;;;;;;;2.50;2.40;;;24.70;37.70;;;;;;10498910;28;20280;-81
2021/06/02 14:48:57;;;;;;;2.27;2.17;;;24.80;36.90;;;;;;10499771;28;20193;-80
2021/06/02 14:54:00;;;;;;;3.13;2.57;;;24.70;38.60;;;;;;10475662;28;20306;-80
2021/06/02 14:59:02;;;;;;;2.50;2.30;;;24.70;39.40;;;;;;10497345;28;20688;-80
2021/06/02 15:04:04;;;;;;;2.63;2.53;;;24.60;38.10;;;;;;10497557;28;20232;-80
2021/06/02 15:09:07;;;;;;;2.17;2.07;;;24.60;37.60;;;;;;10495839;28;20570;-79
2021/06/02 15:14:08;;;;;;;3.40;2.80;;;24.50;39.30;;;;;;10498186;28;20235;-80
2021/06/02 15:19:10;;;;;;;2.63;2.53;;;24.50;39.70;;;;;;10503720;28;20228;-80
2021/06/02 15:24:13;;;;;;;3.00;2.80;;;24.50;39.90;;;;;;10507283;28;20225;-80
2021/06/02 15:29:16;;;;;;;2.47;2.23;;;24.50;38.70;;;;;;10501020;28;20408;-80
2021/06/02 15:34:17;;;;;;;2.80;2.60;;;24.50;39.80;;;;;;10504387;28;20234;-80
2021/06/02 15:39:21;;;;;;;3.10;2.10;;;24.50;39.50;;;;;;10482451;28;20220;-80
2021/06/02 15:44:23;;;;;;;2.70;2.50;;;24.60;40.20;;;;;;10496819;28;20350;-81
2021/06/02 15:49:24;;;;;;;2.60;2.40;;;24.50;40.60;;;;;;10506367;28;20271;-81
2021/06/02 15:54:28;;;;;;;2.20;2.10;;;24.40;40.10;;;;;;10507971;28;20248;-81
2021/06/02 15:59:31;;;;;;;2.17;2.07;;;24.40;41.30;;;;;;10488492;28;20663;-81
2021/06/02 16:04:33;;;;;;;2.60;2.50;;;24.30;41.70;;;;;;10489047;28;20228;-81
2021/06/02 16:09:36;;;;;;;6.80;2.53;;;24.20;40.20;;;;;;10488724;28;20210;-81
2021/06/02 16:14:39;;;;;;;2.53;2.20;;;24.20;40.60;;;;;;10515869;22;20243;-78
2021/06/02 16:19:40;;;;;;;2.87;2.67;;;24.20;39.70;;;;;;10491346;28;20255;-81
2021/06/02 16:24:43;;;;;;;2.80;2.40;;;24.30;40.00;;;;;;10491529;28;20224;-79
2021/06/02 16:29:48;;;;;;;5.00;2.03;;;24.30;41.90;;;;;;10487492;28;20620;-81
2021/06/02 16:34:50;;;;;;;2.53;2.37;;;24.20;40.30;;;;;;10494581;28;20296;-79
2021/06/02 16:39:53;;;;;;;2.23;2.13;;;24.10;41.60;;;;;;10501648;28;20713;-79
2021/06/02 16:44:55;;;;;;;2.50;2.37;;;24.10;39.80;;;;;;10500336;28;20303;-79
2021/06/02 16:49:56;;;;;;;2.53;2.23;;;24.10;39.00;;;;;;10495237;28;20630;-81
2021/06/02 16:55:02;;;;;;;2.70;2.27;;;24.20;38.90;;;;;;10496691;28;20220;-79
2021/06/02 17:00:07;;;;;;;2.77;2.57;;;24.30;41.40;;;;;;10493028;28;20284;-80
2021/06/02 17:05:10;;;;;;;2.40;2.20;;;24.20;39.20;;;;;;10491330;28;20240;-83
2021/06/02 17:10:13;;;;;;;2.97;2.77;;;24.20;40.10;;;;;;10486664;28;20200;-82
2021/06/02 17:15:15;;;;;;;2.80;2.60;;;24.20;43.30;;;;;;10502611;28;20238;-82
2021/06/02 17:20:20;;;;;;;3.03;2.80;;;24.00;40.80;;;;;;10500101;28;20715;-82
2021/06/02 17:25:23;;;;;;;2.47;2.37;;;24.00;39.40;;;;;;10494407;28;20300;-83
2021/06/02 17:30:27;;;;;;;5.80;2.90;;;24.00;42.10;;;;;;10500853;28;20238;-82
2021/06/02 17:35:28;;;;;;;2.77;2.50;;;23.90;41.80;;;;;;10483655;28;20700;-82
2021/06/02 17:40:32;;;;;;;6.70;4.00;;;23.80;45.30;;;;;;10501534;28;20317;-82
2021/06/02 17:45:33;;;;;;;2.37;2.27;;;23.70;41.00;;;;;;10499918;28;20245;-81
2021/06/02 17:50:37;;;;;;;2.77;2.57;;;23.70;41.00;;;;;;10499583;28;20199;-81
2021/06/02 17:55:41;;;;;;;2.63;2.40;;;23.70;43.80;;;;;;10498713;28;20274;-81
2021/06/02 18:00:45;;;;;;;2.87;2.77;;;23.60;41.40;;;;;;10499788;28;20216;-80
2021/06/02 18:05:48;;;;;;;4.00;3.03;;;23.50;43.20;;;;;;10501102;28;20291;-82
2021/06/02 18:10:52;;;;;;;4.50;4.10;;;23.40;44.60;;;;;;10499497;28;20296;-81
2021/06/02 18:15:54;;;;;;;3.20;3.00;;;23.40;46.30;;;;;;10501527;28;20750;-82
2021/06/02 18:20:58;;;;;;;2.80;2.60;;;23.30;46.80;;;;;;10499829;28;20229;-80
2021/06/02 18:26:04;;;;;;;2.80;2.70;;;23.30;46.80;;;;;;10499503;28;20208;-80
2021/06/02 18:31:07;;;;;;;3.13;2.93;;;23.20;47.90;;;;;;10506206;28;20220;-82
2021/06/02 18:36:10;;;;;;;5.23;2.70;;;23.10;47.40;;;;;;10504041;28;20276;-82
2021/06/02 18:41:13;;;;;;;3.10;2.90;;;23.00;47.70;;;;;;10513274;28;20224;-82
2021/06/02 18:46:15;;;;;;;3.30;3.00;;;22.90;48.40;;;;;;10508114;28;20207;-81
2021/06/02 18:51:16;;;;;;;2.93;2.70;;;22.80;48.30;;;;;;10504541;28;20217;-80
2021/06/02 18:56:20;;;;;;;2.57;2.47;;;22.60;48.60;;;;;;10489778;28;20236;-82
2021/06/02 19:01:25;;;;;;;3.17;2.93;;;22.50;49.40;;;;;;10489422;28;20769;-82
2021/06/02 19:06:26;;;;;;;3.03;2.83;;;22.40;49.60;;;;;;10505397;28;20201;-79
2021/06/02 19:11:30;;;;;;;3.00;2.80;;;22.30;49.30;;;;;;10504121;28;20243;-80
2021/06/02 19:16:31;;;;;;;3.10;3.00;;;22.20;49.60;;;;;;10498445;28;20224;-79
2021/06/02 19:21:33;;;;;;;3.00;2.80;;;22.10;50.50;;;;;;10481842;28;20315;-80
2021/06/02 19:26:37;;;;;;;3.77;3.30;;;22.00;49.70;;;;;;10504269;28;20258;-81
2021/06/02 19:31:38;;;;;;;3.27;3.07;;;22.00;49.60;;;;;;10504265;28;20716;-81
2021/06/02 19:36:40;;;;;;;4.37;3.23;;;21.90;49.40;;;;;;10503656;28;20525;-81
2021/06/02 19:41:43;;;;;;;3.87;3.57;;;21.90;49.40;;;;;;10497391;28;20610;-80
2021/06/02 19:46:44;;;;;;;2.97;2.77;;;21.80;49.50;;;;;;10503845;28;20684;-81
2021/06/02 19:51:47;;;;;;;4.33;3.93;;;21.70;50.00;;;;;;10476443;28;20228;-80
2021/06/02 19:56:52;;;;;;;4.00;3.70;;;21.70;49.60;;;;;;10500350;28;20652;-79
2021/06/02 20:01:53;;;;;;;3.63;3.33;;;21.60;50.00;;;;;;10494738;28;20224;-79
2021/06/02 20:06:55;;;;;;;3.07;2.87;;;21.60;50.00;;;;;;10501822;28;20192;-79
2021/06/02 20:12:01;;;;;;;3.80;3.50;;;21.50;50.00;;;;;;10500317;28;20259;-79
2021/06/02 20:17:04;;;;;;;3.43;2.67;;;21.50;50.20;;;;;;10501875;28;20322;-79
2021/06/02 20:22:06;;;;;;;4.57;3.00;;;21.50;50.50;;;;;;10496128;28;20248;-80
2021/06/02 20:27:09;;;;;;;2.67;2.47;;;21.40;50.20;;;;;;10501695;28;20660;-80
2021/06/02 20:37:30;;;;;;;3.27;3.07;;;21.40;50.80;;;;;;10495507;28;20203;-80
2021/06/02 20:42:34;;;;;;;3.70;3.50;;;21.40;51.00;;;;;;10487473;28;20534;-80
2021/06/02 20:47:36;;;;;;;4.20;3.83;;;21.40;50.70;;;;;;10479301;28;20205;-80
2021/06/02 20:52:39;;;;;;;3.83;3.63;;;21.40;51.00;;;;;;10480027;28;20224;-79
2021/06/02 20:57:43;;;;;;;3.57;3.30;;;21.40;51.60;;;;;;10481955;28;20208;-81
2021/06/02 21:02:44;;;;;;;3.93;3.60;;;21.40;52.00;;;;;;10501450;28;20259;-81
2021/06/02 21:07:47;;;;;;;3.67;3.37;;;21.40;51.80;;;;;;10496432;28;20220;-81
2021/06/02 21:12:51;;;;;;;4.07;3.77;;;21.40;51.90;;;;;;10493704;28;20315;-81
2021/06/02 21:17:53;;;;;;;3.40;3.20;;;21.40;52.60;;;;;;10502438;28;20729;-80
2021/06/02 21:22:54;;;;;;;3.63;3.33;;;21.40;52.50;;;;;;10496335;28;20598;-80
2021/06/02 21:27:57;;;;;;;3.83;3.63;;;21.40;52.70;;;;;;10500277;28;20579;-79
2021/06/02 21:32:59;;;;;;;3.80;3.60;;;21.40;52.60;;;;;;10499241;28;20220;-80
2021/06/02 21:38:01;;;;;;;3.50;3.20;;;21.30;52.80;;;;;;10494241;28;20213;-80
2021/06/02 21:43:04;;;;;;;4.00;3.70;;;21.30;52.60;;;;;;10502833;28;20353;-81
2021/06/02 21:48:06;;;;;;;4.00;3.70;;;21.30;52.80;;;;;;10480151;28;20387;-79
2021/06/02 21:53:08;;;;;;;3.50;3.30;;;21.30;52.90;;;;;;10485166;28;20223;-79
2021/06/02 21:58:11;;;;;;;3.70;3.40;;;21.20;53.10;;;;;;10486297;28;20219;-81
2021/06/02 22:03:16;;;;;;;4.53;4.20;;;21.10;53.20;;;;;;10495417;28;20221;-81
2021/06/02 22:08:17;;;;;;;6.70;4.03;;;21.00;53.80;;;;;;10498549;28;20215;-79
2021/06/02 22:13:20;;;;;;;4.10;3.80;;;21.00;53.80;;;;;;10495643;22;20699;-80
2021/06/02 22:18:22;;;;;;;4.40;4.10;;;21.00;53.50;;;;;;10466622;28;20281;-80
2021/06/02 22:23:25;;;;;;;4.20;3.90;;;21.00;53.90;;;;;;10466753;28;20589;-80
2021/06/02 22:28:28;;;;;;;4.20;3.60;;;20.90;54.20;;;;;;10437767;28;20196;-80
2021/06/02 22:33:29;;;;;;;3.90;3.60;;;20.80;54.70;;;;;;10447818;28;20598;-80
2021/06/02 22:38:31;;;;;;;4.40;4.10;;;20.70;54.30;;;;;;10445083;28;20292;-80
2021/06/02 22:43:37;;;;;;;3.90;3.70;;;20.60;54.70;;;;;;10433204;28;20770;-80
2021/06/02 22:48:39;;;;;;;4.60;4.20;;;20.50;55.10;;;;;;10470646;28;20243;-80
2021/06/02 22:53:43;;;;;;;4.97;4.37;;;20.40;55.10;;;;;;10464327;28;20266;-80
2021/06/02 22:58:46;;;;;;;3.73;3.53;;;20.30;55.00;;;;;;10457059;28;20297;-80
2021/06/02 23:03:48;;;;;;;4.23;3.93;;;20.20;55.50;;;;;;10468906;28;20224;-80
2021/06/02 23:08:49;;;;;;;4.57;4.27;;;20.10;56.00;;;;;;10442759;28;20196;-80
2021/06/02 23:13:52;;;;;;;4.50;4.17;;;20.00;55.50;;;;;;10449433;28;20271;-80
2021/06/02 23:18:54;;;;;;;5.30;4.60;;;20.00;55.90;;;;;;10431981;28;20292;-80
2021/06/02 23:23:56;;;;;;;4.30;4.00;;;20.00;55.80;;;;;;10442362;28;20282;-81
2021/06/02 23:28:59;;;;;;;5.17;4.07;;;19.90;56.00;;;;;;10467234;28;20221;-80
2021/06/02 23:34:01;;;;;;;4.13;3.83;;;19.90;56.30;;;;;;10466726;28;20221;-80
2021/06/02 23:39:03;;;;;;;4.30;4.00;;;19.90;57.10;;;;;;10457268;28;20312;-80
2021/06/02 23:44:06;;;;;;;4.30;3.90;;;19.80;57.40;;;;;;10441104;28;20244;-80
2021/06/02 23:49:08;;;;;;;4.17;3.77;;;19.80;57.30;;;;;;10443330;28;20209;-79
2021/06/02 23:54:10;;;;;;;3.37;3.07;;;19.80;57.80;;;;;;10463433;28;20217;-80
2021/06/02 23:59:13;;;;;;;4.10;3.80;;;19.80;58.40;;;;;;10440538;28;20274;-80
